createdAt,value
2024-05-09T00:00:54.159Z,54.17
2024-05-09T00:02:14.643Z,53.61
2024-05-09T00:03:34.992Z,54.37
2024-05-09T00:04:55.273Z,53.21
2024-05-09T00:06:15.388Z,53.63
2024-05-09T00:07:35.215Z,54.47
2024-05-09T00:08:54.902Z,53.41
2024-05-09T00:10:25.066Z,53.93
2024-05-09T00:11:49.323Z,53.79
2024-05-09T00:13:10.727Z,54.45
2024-05-09T00:14:31.528Z,54.24
2024-05-09T00:15:50.924Z,54.67
2024-05-09T00:17:11.307Z,54.18
2024-05-09T00:18:32.355Z,54.01
2024-05-09T00:19:52.765Z,54.47
2024-05-09T00:21:12.835Z,54.16
2024-05-09T00:22:32.400Z,54.76
2024-05-09T00:23:52.759Z,53.93
2024-05-09T00:25:13.368Z,54.17
2024-05-09T00:26:33.302Z,54.29
2024-05-09T00:27:52.993Z,54.74
2024-05-09T00:29:25.055Z,53.84
2024-05-09T00:30:54.447Z,53.67
2024-05-09T00:32:23.923Z,54.61
2024-05-09T00:33:44.411Z,53.93
2024-05-09T00:35:05.254Z,54.47
2024-05-09T00:36:25.308Z,54.20
2024-05-09T00:37:45.917Z,53.80
2024-05-09T00:39:06.086Z,53.50
2024-05-09T00:40:35.725Z,53.93
2024-05-09T00:41:59.741Z,53.84
2024-05-09T00:43:19.808Z,53.08
2024-05-09T00:44:39.688Z,53.95
2024-05-09T00:46:00.918Z,54.25
2024-05-09T00:47:21.573Z,54.19
2024-05-09T00:48:41.525Z,53.93
2024-05-09T00:50:03.097Z,53.53
2024-05-09T00:51:24.305Z,53.80
2024-05-09T00:52:46.016Z,53.14
2024-05-09T00:54:06.719Z,52.89
2024-05-09T00:55:26.969Z,53.51
2024-05-09T00:56:48.768Z,53.10
2024-05-09T00:58:11.281Z,52.70
2024-05-09T00:59:31.580Z,52.77
2024-05-09T01:00:51.787Z,51.95
2024-05-09T01:02:11.988Z,51.97
2024-05-09T01:03:31.848Z,52.01
2024-05-09T01:04:58.538Z,53.05
2024-05-09T01:06:19.843Z,53.24
2024-05-09T01:07:39.642Z,53.38
2024-05-09T01:08:59.201Z,53.51
2024-05-09T01:10:37.708Z,53.18
2024-05-09T01:11:58.216Z,54.14
2024-05-09T01:13:18.824Z,53.60
2024-05-09T01:14:42.745Z,53.07
2024-05-09T01:16:02.562Z,53.12
2024-05-09T01:17:22.628Z,53.10
2024-05-09T01:18:42.506Z,53.47
2024-05-09T01:20:02.636Z,52.39
2024-05-09T01:21:22.889Z,53.15
2024-05-09T01:22:43.597Z,52.72
2024-05-09T01:24:03.986Z,52.03
2024-05-09T01:25:24.481Z,52.36
2024-05-09T01:26:53.051Z,52.20
2024-05-09T01:28:14.142Z,53.12
2024-05-09T01:29:33.713Z,52.90
2024-05-09T01:30:53.581Z,53.42
2024-05-09T01:32:14.060Z,53.97
2024-05-09T01:33:33.924Z,54.39
2024-05-09T01:34:53.933Z,53.60
2024-05-09T01:36:14.261Z,53.60
2024-05-09T01:37:34.206Z,54.47
2024-05-09T01:38:53.569Z,53.71
2024-05-09T01:40:18.437Z,53.24
2024-05-09T01:41:41.812Z,53.70
2024-05-09T01:43:02.196Z,53.20
2024-05-09T01:44:22.968Z,53.75
2024-05-09T01:45:45.278Z,53.16
2024-05-09T01:47:05.506Z,53.19
2024-05-09T01:48:26.139Z,54.07
2024-05-09T01:49:46.000Z,53.96
2024-05-09T01:51:05.944Z,54.25
2024-05-09T01:52:25.957Z,53.28
2024-05-09T01:54:36.852Z,54.82
2024-05-09T01:55:56.213Z,54.41
2024-05-09T01:57:34.617Z,54.84
2024-05-09T01:59:06.349Z,54.13
2024-05-09T02:00:37.096Z,54.02
2024-05-09T02:02:01.178Z,53.42
2024-05-09T02:03:21.479Z,53.58
2024-05-09T02:04:41.756Z,52.87
2024-05-09T02:06:03.029Z,53.46
2024-05-09T02:07:23.234Z,53.54
2024-05-09T02:08:45.499Z,53.25
2024-05-09T02:10:13.629Z,53.85
2024-05-09T02:11:44.005Z,53.63
2024-05-09T02:13:08.750Z,55.04
2024-05-09T02:14:29.221Z,55.06
2024-05-09T02:15:51.265Z,55.58
2024-05-09T02:17:10.994Z,54.95
2024-05-09T02:18:30.711Z,54.65
2024-05-09T02:19:53.784Z,55.08
2024-05-09T02:21:24.164Z,54.25
2024-05-09T02:22:43.777Z,54.16
2024-05-09T02:24:03.099Z,54.78
2024-05-09T02:25:26.703Z,54.37
2024-05-09T02:26:46.699Z,54.66
2024-05-09T02:28:07.366Z,54.93
2024-05-09T02:29:26.976Z,55.75
2024-05-09T02:30:46.400Z,56.25
2024-05-09T02:32:06.689Z,56.61
2024-05-09T02:33:26.344Z,55.92
2024-05-09T02:34:46.792Z,55.75
2024-05-09T02:36:10.556Z,57.87
2024-05-09T02:37:33.761Z,59.02
2024-05-09T02:38:57.429Z,59.91
2024-05-09T02:40:25.232Z,60.53
2024-05-09T02:41:49.537Z,60.48
2024-05-09T02:43:12.724Z,60.02
2024-05-09T02:44:34.032Z,60.60
2024-05-09T02:45:54.595Z,60.75
2024-05-09T02:47:14.057Z,60.16
2024-05-09T02:48:35.105Z,60.40
2024-05-09T02:49:55.378Z,60.29
2024-05-09T02:51:15.314Z,60.15
2024-05-09T02:52:36.076Z,60.75
2024-05-09T02:53:55.792Z,61.41
2024-05-09T02:55:15.261Z,61.74
2024-05-09T02:56:43.715Z,62.04
2024-05-09T02:58:03.496Z,61.19
2024-05-09T02:59:23.099Z,60.59
2024-05-09T03:01:31.921Z,61.04
2024-05-09T03:02:29.782Z,61.79
2024-05-09T03:03:51.269Z,61.60
2024-05-09T03:05:11.144Z,61.74
2024-05-09T03:06:30.758Z,61.80
2024-05-09T03:07:51.313Z,62.83
2024-05-09T03:09:11.347Z,62.19
2024-05-09T03:10:35.771Z,61.91
2024-05-09T03:12:18.960Z,63.04
2024-05-09T03:13:40.464Z,63.36
2024-05-09T03:15:35.553Z,62.28
2024-05-09T03:17:02.955Z,63.19
2024-05-09T03:18:25.987Z,63.55
2024-05-09T03:19:45.555Z,63.83
2024-05-09T03:21:07.040Z,63.91
2024-05-09T03:22:43.734Z,64.86
2024-05-09T03:24:31.521Z,63.89
2024-05-09T03:25:53.114Z,64.44
2024-05-09T03:27:19.201Z,63.87
2024-05-09T03:28:41.071Z,63.02
2024-05-09T03:30:01.529Z,63.74
2024-05-09T03:31:21.349Z,62.80
2024-05-09T03:32:43.239Z,62.41
2024-05-09T03:34:03.438Z,62.14
2024-05-09T03:35:23.251Z,62.39
2024-05-09T03:36:43.339Z,62.71
2024-05-09T03:38:04.185Z,62.13
2024-05-09T03:39:23.615Z,62.08
2024-05-09T03:40:45.881Z,61.08
2024-05-09T03:42:08.667Z,59.77
2024-05-09T03:43:29.815Z,59.99
2024-05-09T03:44:51.599Z,58.57
2024-05-09T03:46:12.308Z,59.33
2024-05-09T03:47:50.591Z,57.71
2024-05-09T03:49:10.530Z,57.44
2024-05-09T03:50:35.467Z,57.30
2024-05-09T03:52:04.212Z,56.89
2024-05-09T03:53:32.563Z,56.59
2024-05-09T03:54:52.772Z,56.24
2024-05-09T03:56:40.284Z,55.94
2024-05-09T03:58:00.876Z,55.53
2024-05-09T03:59:20.862Z,56.23
2024-05-09T04:00:41.494Z,55.18
2024-05-09T04:02:02.214Z,54.67
2024-05-09T04:03:21.907Z,54.34
2024-05-09T04:04:43.711Z,54.39
2024-05-09T04:06:58.845Z,53.73
2024-05-09T04:08:27.682Z,54.40
2024-05-09T04:09:47.384Z,53.53
2024-05-09T04:11:06.965Z,53.84
2024-05-09T04:12:38.731Z,53.84
2024-05-09T04:13:58.886Z,54.31
2024-05-09T04:15:19.637Z,53.29
2024-05-09T04:16:39.744Z,53.89
2024-05-09T04:18:00.741Z,52.96
2024-05-09T04:19:21.771Z,53.58
2024-05-09T04:20:41.886Z,53.28
2024-05-09T04:22:01.714Z,53.78
2024-05-09T04:23:21.555Z,52.74
2024-05-09T04:24:41.632Z,53.14
2024-05-09T04:26:03.306Z,52.92
2024-05-09T04:27:24.280Z,53.29
2024-05-09T04:28:44.887Z,53.52
2024-05-09T04:30:07.990Z,52.81
2024-05-09T04:31:35.404Z,52.81
2024-05-09T04:32:55.626Z,52.42
2024-05-09T04:34:16.030Z,52.59
2024-05-09T04:35:36.686Z,53.21
2024-05-09T04:36:59.711Z,53.23
2024-05-09T04:38:20.744Z,53.16
2024-05-09T04:39:44.258Z,54.01
2024-05-09T04:41:07.796Z,54.06
2024-05-09T04:42:27.809Z,53.43
2024-05-09T04:43:50.064Z,53.07
2024-05-09T04:45:10.613Z,54.32
2024-05-09T04:46:30.502Z,54.84
2024-05-09T04:47:50.075Z,54.64
2024-05-09T04:49:09.933Z,55.08
2024-05-09T04:50:36.702Z,54.93
2024-05-09T04:51:58.888Z,56.38
2024-05-09T04:53:19.271Z,56.84
2024-05-09T04:54:39.245Z,56.50
2024-05-09T04:55:59.095Z,57.71
2024-05-09T04:57:18.994Z,57.88
2024-05-09T04:58:39.633Z,57.73
2024-05-09T05:00:01.544Z,57.83
2024-05-09T05:01:21.671Z,58.84
2024-05-09T05:02:41.534Z,58.34
2024-05-09T05:04:02.107Z,58.44
2024-05-09T05:05:22.037Z,58.68
2024-05-09T05:06:42.617Z,57.88
2024-05-09T05:08:03.034Z,58.21
2024-05-09T05:09:22.562Z,58.03
2024-05-09T05:10:43.203Z,57.22
2024-05-09T05:12:22.950Z,57.06
2024-05-09T05:13:43.607Z,56.26
2024-05-09T05:15:03.789Z,55.75
2024-05-09T05:16:24.459Z,56.08
2024-05-09T05:17:44.868Z,54.67
2024-05-09T05:19:07.570Z,54.26
2024-05-09T05:20:33.674Z,54.71
2024-05-09T05:21:54.138Z,54.99
2024-05-09T05:23:15.991Z,54.24
2024-05-09T05:24:36.598Z,54.21
2024-05-09T05:25:56.287Z,54.48
2024-05-09T05:27:16.965Z,54.60
2024-05-09T05:28:37.445Z,54.33
2024-05-09T05:29:57.416Z,54.49
2024-05-09T05:31:17.556Z,53.85
2024-05-09T05:32:38.578Z,53.72
2024-05-09T05:33:58.366Z,53.53
2024-05-09T05:35:18.114Z,53.01
2024-05-09T05:36:37.902Z,53.81
2024-05-09T05:37:57.818Z,53.07
2024-05-09T05:39:17.510Z,52.86
2024-05-09T05:40:38.935Z,53.24
2024-05-09T05:42:01.203Z,53.36
2024-05-09T05:43:21.642Z,53.34
2024-05-09T05:44:42.139Z,52.34
2024-05-09T05:46:01.519Z,52.25
2024-05-09T05:47:23.848Z,52.95
2024-05-09T05:48:44.637Z,51.85
2024-05-09T05:50:07.201Z,52.66
2024-05-09T05:51:32.867Z,52.40
2024-05-09T05:52:53.220Z,52.20
2024-05-09T05:54:13.187Z,52.80
2024-05-09T05:55:33.312Z,51.89
2024-05-09T05:56:52.929Z,52.39
2024-05-09T05:58:13.770Z,51.47
2024-05-09T05:59:34.352Z,52.07
2024-05-09T06:00:54.133Z,51.75
2024-05-09T06:02:14.980Z,51.73
2024-05-09T06:03:35.854Z,51.50
2024-05-09T06:04:56.451Z,50.61
2024-05-09T06:06:16.683Z,50.75
2024-05-09T06:07:36.952Z,50.47
2024-05-09T06:08:57.617Z,51.04
2024-05-09T06:10:25.134Z,51.28
2024-05-09T06:11:46.539Z,49.63
2024-05-09T06:13:10.404Z,50.10
2024-05-09T06:14:31.636Z,49.93
2024-05-09T06:15:51.597Z,50.98
2024-05-09T06:17:12.760Z,50.56
2024-05-09T06:18:34.030Z,50.61
2024-05-09T06:19:54.008Z,49.50
2024-05-09T06:21:16.770Z,49.96
2024-05-09T06:22:36.776Z,50.50
2024-05-09T06:23:56.652Z,50.17
2024-05-09T06:25:17.205Z,50.43
2024-05-09T06:26:42.087Z,50.24
2024-05-09T06:28:03.764Z,49.97
2024-05-09T06:29:24.439Z,50.11
2024-05-09T06:30:44.894Z,49.62
2024-05-09T06:32:06.010Z,50.23
2024-05-09T06:33:26.546Z,50.64
2024-05-09T06:34:47.195Z,50.56
2024-05-09T06:36:07.233Z,50.14
2024-05-09T06:37:28.353Z,50.14
2024-05-09T06:38:48.994Z,50.35
2024-05-09T06:40:10.140Z,50.47
2024-05-09T06:41:30.802Z,51.07
2024-05-09T06:42:52.972Z,51.51
2024-05-09T06:44:12.757Z,51.02
2024-05-09T06:45:40.993Z,50.72
2024-05-09T06:47:00.495Z,51.05
2024-05-09T06:48:22.090Z,50.58
2024-05-09T06:49:43.053Z,51.14
2024-05-09T06:51:04.745Z,50.65
2024-05-09T06:52:24.710Z,51.40
2024-05-09T06:53:45.936Z,51.36
2024-05-09T06:55:07.800Z,51.13
2024-05-09T06:56:27.240Z,51.77
2024-05-09T06:57:47.844Z,52.63
2024-05-09T06:59:07.946Z,53.17
2024-05-09T07:00:35.593Z,52.58
2024-05-09T07:01:59.869Z,51.84
2024-05-09T07:03:20.443Z,52.77
2024-05-09T07:04:40.475Z,51.28
2024-05-09T07:06:00.442Z,51.93
2024-05-09T07:07:20.574Z,51.19
2024-05-09T07:08:41.051Z,51.47
2024-05-09T07:10:00.722Z,51.70
2024-05-09T07:11:21.413Z,50.85
2024-05-09T07:12:41.834Z,51.77
2024-05-09T07:14:02.473Z,51.71
2024-05-09T07:15:23.186Z,52.19
2024-05-09T07:16:44.234Z,51.21
2024-05-09T07:18:20.773Z,51.21
2024-05-09T07:19:41.428Z,51.08
2024-05-09T07:21:02.554Z,51.56
2024-05-09T07:22:24.555Z,51.09
2024-05-09T07:23:47.265Z,50.65
2024-05-09T07:25:07.894Z,51.10
2024-05-09T07:26:28.064Z,51.13
2024-05-09T07:27:48.903Z,50.92
2024-05-09T07:29:09.461Z,50.71
2024-05-09T07:30:33.513Z,51.42
2024-05-09T07:31:54.979Z,50.67
2024-05-09T07:33:16.600Z,51.90
2024-05-09T07:34:36.571Z,52.31
2024-05-09T07:35:56.694Z,52.45
2024-05-09T07:37:16.697Z,52.32
2024-05-09T07:38:36.459Z,51.96
2024-05-09T07:39:57.222Z,51.98
2024-05-09T07:41:16.970Z,52.08
2024-05-09T07:42:37.387Z,52.36
2024-05-09T07:43:57.508Z,51.83
2024-05-09T07:47:47.893Z,51.50
2024-05-09T07:53:34.298Z,51.28
2024-05-09T07:54:23.558Z,51.00
2024-05-09T07:55:43.579Z,50.34
2024-05-09T07:57:05.086Z,50.65
2024-05-09T07:58:26.245Z,50.73
2024-05-09T07:59:45.605Z,50.30
2024-05-09T08:01:06.928Z,50.78
2024-05-09T08:02:27.921Z,49.41
2024-05-09T08:03:47.902Z,49.32
2024-05-09T08:05:09.008Z,49.46
2024-05-09T08:06:29.623Z,50.10
2024-05-09T08:07:50.874Z,49.96
2024-05-09T08:09:16.744Z,50.69
2024-05-09T08:10:40.973Z,50.06
2024-05-09T08:12:01.546Z,50.49
2024-05-09T08:13:21.866Z,50.36
2024-05-09T08:14:45.381Z,50.68
2024-05-09T08:16:06.813Z,50.21
2024-05-09T08:17:27.770Z,49.79
2024-05-09T08:18:50.224Z,49.60
2024-05-09T08:20:11.398Z,50.60
2024-05-09T08:21:33.361Z,50.63
2024-05-09T08:22:53.944Z,50.07
2024-05-09T08:24:14.225Z,50.05
2024-05-09T08:25:34.246Z,50.48
2024-05-09T08:26:54.380Z,49.73
2024-05-09T08:28:14.553Z,48.69
2024-05-09T08:29:35.959Z,50.27
2024-05-09T08:30:57.220Z,49.70
2024-05-09T08:32:17.542Z,50.09
2024-05-09T08:33:46.772Z,50.59
2024-05-09T08:35:07.522Z,50.16
2024-05-09T08:36:28.318Z,50.58
2024-05-09T08:37:49.355Z,49.91
2024-05-09T08:39:10.025Z,49.94
2024-05-09T08:40:35.443Z,49.71
2024-05-09T08:41:57.461Z,49.98
2024-05-09T08:43:19.420Z,49.17
2024-05-09T08:44:40.580Z,49.22
2024-05-09T08:46:02.733Z,48.75
2024-05-09T08:47:23.525Z,48.93
2024-05-09T08:48:46.464Z,49.28
2024-05-09T08:50:13.569Z,49.13
2024-05-09T08:51:37.631Z,48.65
2024-05-09T08:52:58.238Z,49.97
2024-05-09T08:54:20.247Z,49.46
2024-05-09T08:55:43.176Z,50.38
2024-05-09T08:57:04.890Z,49.16
2024-05-09T08:58:26.499Z,48.64
2024-05-09T08:59:50.925Z,49.11
2024-05-09T09:01:12.083Z,48.84
2024-05-09T09:02:33.335Z,50.03
2024-05-09T09:03:53.841Z,49.88
2024-05-09T09:05:16.561Z,48.69
2024-05-09T09:06:37.472Z,49.71
2024-05-09T09:07:57.804Z,48.64
2024-05-09T09:09:18.403Z,48.46
2024-05-09T09:10:40.028Z,48.48
2024-05-09T09:11:59.935Z,48.07
2024-05-09T09:13:20.828Z,47.62
2024-05-09T09:14:41.285Z,47.28
2024-05-09T09:16:01.905Z,47.11
2024-05-09T09:17:22.426Z,47.04
2024-05-09T09:18:47.339Z,47.27
2024-05-09T09:20:13.990Z,47.34
2024-05-09T09:21:36.324Z,47.76
2024-05-09T09:22:57.775Z,47.41
2024-05-09T09:24:18.406Z,47.82
2024-05-09T09:25:41.376Z,47.90
2024-05-09T09:27:01.019Z,48.38
2024-05-09T09:28:23.409Z,49.14
2024-05-09T09:29:43.200Z,48.95
2024-05-09T09:31:04.385Z,49.36
2024-05-09T09:32:28.200Z,49.20
2024-05-09T09:33:49.845Z,49.78
2024-05-09T09:35:10.922Z,49.78
2024-05-09T09:36:31.623Z,49.07
2024-05-09T09:37:51.662Z,48.51
2024-05-09T09:39:17.048Z,48.73
2024-05-09T09:40:46.711Z,48.71
2024-05-09T09:42:11.224Z,48.02
2024-05-09T09:43:33.057Z,47.83
2024-05-09T09:45:02.133Z,48.49
2024-05-09T09:46:27.891Z,48.33
2024-05-09T09:47:50.778Z,48.69
2024-05-09T09:49:12.040Z,48.96
2024-05-09T09:50:35.335Z,48.35
2024-05-09T09:51:56.276Z,49.06
2024-05-09T09:53:16.718Z,48.83
2024-05-09T09:54:36.754Z,48.23
2024-05-09T09:55:58.035Z,48.82
2024-05-09T09:57:22.098Z,48.43
2024-05-09T09:58:44.403Z,48.43
2024-05-09T10:00:09.626Z,48.16
2024-05-09T10:01:34.074Z,48.39
2024-05-09T10:02:54.261Z,48.31
2024-05-09T10:04:17.981Z,48.85
2024-05-09T10:05:41.318Z,47.97
2024-05-09T10:07:08.072Z,46.68
2024-05-09T10:08:28.546Z,46.67
2024-05-09T10:09:49.895Z,45.92
2024-05-09T10:11:10.721Z,45.56
2024-05-09T10:12:31.279Z,44.84
2024-05-09T10:13:52.756Z,43.98
2024-05-09T10:15:13.651Z,43.55
2024-05-09T10:16:35.164Z,43.56
2024-05-09T10:18:05.460Z,43.02
2024-05-09T10:19:27.484Z,42.56
2024-05-09T10:20:48.550Z,42.78
2024-05-09T10:22:09.031Z,42.67
2024-05-09T10:23:31.366Z,41.91
2024-05-09T10:24:52.537Z,40.88
2024-05-09T10:26:12.781Z,40.61
2024-05-09T10:27:33.899Z,40.23
2024-05-09T10:28:57.712Z,39.95
2024-05-09T10:30:33.697Z,39.88
2024-05-09T10:31:59.282Z,39.39
2024-05-09T10:33:19.442Z,39.04
2024-05-09T10:34:40.374Z,38.82
2024-05-09T10:36:03.143Z,38.23
2024-05-09T10:37:28.088Z,38.50
2024-05-09T10:38:49.219Z,37.86
2024-05-09T10:40:23.346Z,38.10
2024-05-09T10:41:49.498Z,37.43
2024-05-09T10:43:09.012Z,37.65
2024-05-09T10:44:29.548Z,37.38
2024-05-09T10:45:50.249Z,37.34
2024-05-09T10:47:10.405Z,37.56
2024-05-09T10:48:31.528Z,37.28
2024-05-09T10:49:52.334Z,36.87
2024-05-09T10:51:13.139Z,37.17
2024-05-09T10:52:34.792Z,36.26
2024-05-09T10:53:56.642Z,37.04
2024-05-09T10:55:17.682Z,36.41
2024-05-09T10:56:38.064Z,36.25
2024-05-09T10:57:58.048Z,36.19
2024-05-09T10:59:17.951Z,36.05
2024-05-09T11:00:38.443Z,36.15
2024-05-09T11:01:59.478Z,36.03
2024-05-09T11:03:21.347Z,35.43
2024-05-09T11:04:45.478Z,35.86
2024-05-09T11:06:06.619Z,35.63
2024-05-09T11:07:27.531Z,35.32
2024-05-09T11:08:47.523Z,34.68
2024-05-09T11:10:12.481Z,33.96
2024-05-09T11:11:35.359Z,33.87
2024-05-09T11:12:55.441Z,34.29
2024-05-09T11:14:16.451Z,34.01
2024-05-09T11:15:40.237Z,33.84
2024-05-09T11:17:02.983Z,34.00
2024-05-09T11:18:26.198Z,33.98
2024-05-09T11:19:50.975Z,33.49
2024-05-09T11:21:11.575Z,33.07
2024-05-09T11:22:32.376Z,33.44
2024-05-09T11:23:52.478Z,33.22
2024-05-09T11:25:12.678Z,33.45
2024-05-09T11:26:32.800Z,32.90
2024-05-09T11:27:53.031Z,33.42
2024-05-09T11:29:15.756Z,32.74
2024-05-09T11:30:37.843Z,33.82
2024-05-09T11:31:57.762Z,33.91
2024-05-09T11:33:18.966Z,33.93
2024-05-09T11:34:40.954Z,34.76
2024-05-09T11:36:02.369Z,33.63
2024-05-09T11:37:22.591Z,33.40
2024-05-09T11:38:43.464Z,33.65
2024-05-09T11:40:05.468Z,32.72
2024-05-09T11:41:26.535Z,32.28
2024-05-09T11:42:48.191Z,31.74
2024-05-09T11:44:09.378Z,31.02
2024-05-09T11:45:29.195Z,31.68
2024-05-09T11:46:49.335Z,30.82
2024-05-09T11:48:09.801Z,30.33
2024-05-09T11:49:30.247Z,30.41
2024-05-09T11:50:50.885Z,30.37
2024-05-09T11:52:11.849Z,30.32
2024-05-09T11:53:32.252Z,30.87
2024-05-09T11:54:52.694Z,30.74
2024-05-09T11:56:14.359Z,30.38
2024-05-09T11:57:35.094Z,30.55
2024-05-09T11:58:55.463Z,29.14
2024-05-09T12:00:21.037Z,29.12
2024-05-09T12:01:49.248Z,29.20
2024-05-09T12:03:09.507Z,29.09
2024-05-09T12:04:29.522Z,28.64
2024-05-09T12:05:49.906Z,28.85
2024-05-09T12:07:12.863Z,28.54
2024-05-09T12:08:33.379Z,27.94
2024-05-09T12:09:52.968Z,27.44
2024-05-09T12:11:14.078Z,27.78
2024-05-09T12:12:37.111Z,28.24
2024-05-09T12:13:57.351Z,28.21
2024-05-09T12:15:17.818Z,27.28
2024-05-09T12:16:37.984Z,28.38
2024-05-09T12:18:00.243Z,28.37
2024-05-09T12:19:23.633Z,29.05
2024-05-09T12:20:44.597Z,28.50
2024-05-09T12:22:04.933Z,28.46
2024-05-09T12:23:25.346Z,28.83
2024-05-09T12:24:45.462Z,29.28
2024-05-09T12:26:05.017Z,29.40
2024-05-09T12:27:25.436Z,30.54
2024-05-09T12:28:45.908Z,30.21
2024-05-09T12:30:08.968Z,30.00
2024-05-09T12:31:32.811Z,28.95
2024-05-09T12:32:53.371Z,28.11
2024-05-09T12:34:15.392Z,27.96
2024-05-09T12:35:35.923Z,28.07
2024-05-09T12:36:56.467Z,27.11
2024-05-09T12:38:15.825Z,27.78
2024-05-09T12:39:36.074Z,28.53
2024-05-09T12:40:56.935Z,28.76
2024-05-09T12:42:26.556Z,29.20
2024-05-09T12:43:48.767Z,28.87
2024-05-09T12:45:09.524Z,28.78
2024-05-09T12:46:30.957Z,29.69
2024-05-09T12:47:51.069Z,30.72
2024-05-09T12:49:11.770Z,30.83
2024-05-09T12:50:34.508Z,30.89
2024-05-09T12:51:54.807Z,31.52
2024-05-09T12:53:14.938Z,31.55
2024-05-09T12:54:35.677Z,32.09
2024-05-09T12:55:59.946Z,31.30
2024-05-09T12:57:22.494Z,30.52
2024-05-09T12:58:43.219Z,31.18
2024-05-09T13:00:05.745Z,30.93
2024-05-09T13:01:28.345Z,30.69
2024-05-09T13:02:48.692Z,30.22
2024-05-09T13:04:09.088Z,30.68
2024-05-09T13:05:30.088Z,30.67
2024-05-09T13:06:50.017Z,30.92
2024-05-09T13:08:10.522Z,30.07
2024-05-09T13:09:30.868Z,29.93
2024-05-09T13:10:51.096Z,29.36
2024-05-09T13:12:11.799Z,28.85
2024-05-09T13:13:31.640Z,29.43
2024-05-09T13:14:52.084Z,30.27
2024-05-09T13:16:13.303Z,30.64
2024-05-09T13:17:34.058Z,30.94
2024-05-09T13:18:53.791Z,31.24
2024-05-09T13:20:22.852Z,32.12
2024-05-09T13:21:49.891Z,32.24
2024-05-09T13:23:10.254Z,32.06
2024-05-09T13:24:31.266Z,31.52
2024-05-09T13:25:51.417Z,31.64
2024-05-09T13:27:11.988Z,32.66
2024-05-09T13:28:32.758Z,32.75
2024-05-09T13:29:56.317Z,31.86
2024-05-09T13:31:17.072Z,31.19
2024-05-09T13:32:37.390Z,29.36
2024-05-09T13:33:57.575Z,28.84
2024-05-09T13:35:17.991Z,29.47
2024-05-09T13:36:38.896Z,29.04
2024-05-09T13:37:59.689Z,28.90
2024-05-09T13:39:20.343Z,30.02
2024-05-09T13:40:41.110Z,30.54
2024-05-09T13:42:04.307Z,30.84
2024-05-09T13:43:24.543Z,31.34
2024-05-09T13:44:44.272Z,29.62
2024-05-09T13:46:03.877Z,28.94
2024-05-09T13:47:24.610Z,28.84
2024-05-09T13:48:44.459Z,27.98
2024-05-09T13:50:06.902Z,28.57
2024-05-09T13:51:29.395Z,30.44
2024-05-09T13:52:49.520Z,30.02
2024-05-09T13:54:10.211Z,30.83
2024-05-09T13:55:30.547Z,30.89
2024-05-09T13:56:51.433Z,30.78
2024-05-09T13:58:11.773Z,29.04
2024-05-09T13:59:33.222Z,28.52
2024-05-09T14:00:55.532Z,28.46
2024-05-09T14:02:15.511Z,27.55
2024-05-09T14:03:36.061Z,26.88
2024-05-09T14:04:55.816Z,26.41
2024-05-09T14:06:16.195Z,25.89
2024-05-09T14:07:36.395Z,24.73
2024-05-09T14:08:56.695Z,25.07
2024-05-09T14:10:23.247Z,24.39
2024-05-09T14:11:49.042Z,24.64
2024-05-09T14:13:09.676Z,24.71
2024-05-09T14:14:29.733Z,24.32
2024-05-09T14:15:49.747Z,25.30
2024-05-09T14:17:09.804Z,25.47
2024-05-09T14:18:29.675Z,25.77
2024-05-09T14:19:49.587Z,26.26
2024-05-09T14:21:10.498Z,26.07
2024-05-09T14:22:31.108Z,26.78
2024-05-09T14:23:51.867Z,27.21
2024-05-09T14:25:12.206Z,27.24
2024-05-09T14:26:32.689Z,27.13
2024-05-09T14:27:53.634Z,28.22
2024-05-09T14:29:13.311Z,28.17
2024-05-09T14:30:37.363Z,27.64
2024-05-09T14:31:59.193Z,27.18
2024-05-09T14:33:24.240Z,26.46
2024-05-09T14:34:45.088Z,25.61
2024-05-09T14:36:06.205Z,25.61
2024-05-09T14:37:25.741Z,25.39
2024-05-09T14:38:46.332Z,24.67
2024-05-09T14:40:07.476Z,24.82
2024-05-09T14:41:32.638Z,25.33
2024-05-09T14:42:53.206Z,24.54
2024-05-09T14:44:13.921Z,24.51
2024-05-09T14:45:34.327Z,23.67
2024-05-09T14:46:54.833Z,23.59
2024-05-09T14:48:15.440Z,24.88
2024-05-09T14:49:35.601Z,24.47
2024-05-09T14:50:55.534Z,24.03
2024-05-09T14:52:17.112Z,25.25
2024-05-09T14:53:37.729Z,24.28
2024-05-09T14:55:00.630Z,23.79
2024-05-09T14:56:21.270Z,22.88
2024-05-09T14:57:41.480Z,23.39
2024-05-09T14:59:02.403Z,23.21
2024-05-09T15:00:28.593Z,22.77
2024-05-09T15:01:52.916Z,23.35
2024-05-09T15:03:13.887Z,23.37
2024-05-09T15:04:34.029Z,23.04
2024-05-09T15:05:54.229Z,23.33
2024-05-09T15:07:14.760Z,23.50
2024-05-09T15:08:35.290Z,22.73
2024-05-09T15:09:56.114Z,23.97
2024-05-09T15:11:16.495Z,23.85
2024-05-09T15:12:36.666Z,23.64
2024-05-09T15:13:57.277Z,22.79
2024-05-09T15:15:18.002Z,23.64
2024-05-09T15:16:38.751Z,22.83
2024-05-09T15:17:59.784Z,22.42
2024-05-09T15:19:20.778Z,23.06
2024-05-09T15:20:42.641Z,22.27
2024-05-09T15:22:04.081Z,22.93
2024-05-09T15:23:24.634Z,21.90
2024-05-09T15:24:45.372Z,22.35
2024-05-09T15:26:05.694Z,22.21
2024-05-09T15:27:26.089Z,23.29
2024-05-09T15:28:45.919Z,22.37
2024-05-09T15:30:10.410Z,22.53
2024-05-09T15:31:30.535Z,22.25
2024-05-09T15:32:52.566Z,22.44
2024-05-09T15:34:13.696Z,22.81
2024-05-09T15:35:34.714Z,22.21
2024-05-09T15:36:57.828Z,22.25
2024-05-09T15:38:18.459Z,22.63
2024-05-09T15:39:40.164Z,22.44
2024-05-09T15:41:00.826Z,22.37
2024-05-09T15:42:20.920Z,23.17
2024-05-09T15:43:41.092Z,22.92
2024-05-09T15:45:03.971Z,23.23
2024-05-09T15:46:24.845Z,22.39
2024-05-09T15:47:45.499Z,23.98
2024-05-09T15:49:06.481Z,23.55
2024-05-09T15:50:32.868Z,24.69
2024-05-09T15:51:58.326Z,23.35
2024-05-09T15:53:19.504Z,23.61
2024-05-09T15:54:39.307Z,23.38
2024-05-09T15:55:59.539Z,23.65
2024-05-09T15:57:19.518Z,24.46
2024-05-09T15:58:40.607Z,24.25
2024-05-09T16:00:01.032Z,24.37
2024-05-09T16:01:22.083Z,23.15
2024-05-09T16:02:43.283Z,23.89
2024-05-09T16:04:03.789Z,23.41
2024-05-09T16:05:24.580Z,23.09
2024-05-09T16:06:46.957Z,23.16
2024-05-09T16:08:07.436Z,22.86
2024-05-09T16:09:27.258Z,23.17
2024-05-09T16:10:48.343Z,23.58
2024-05-09T16:12:09.317Z,24.02
2024-05-09T16:13:29.096Z,23.86
2024-05-09T16:14:49.734Z,22.98
2024-05-09T16:16:10.198Z,23.71
2024-05-09T16:17:31.046Z,23.25
2024-05-09T16:18:51.915Z,22.56
2024-05-09T16:20:18.116Z,23.30
2024-05-09T16:21:42.765Z,22.15
2024-05-09T16:23:03.085Z,23.01
2024-05-09T16:24:23.454Z,22.95
2024-05-09T16:25:46.803Z,22.98
2024-05-09T16:27:09.345Z,22.81
2024-05-09T16:28:29.459Z,22.87
2024-05-09T16:29:50.004Z,22.49
2024-05-09T16:31:10.235Z,23.09
2024-05-09T16:32:30.384Z,22.09
2024-05-09T16:33:50.629Z,22.77
2024-05-09T16:35:10.924Z,22.59
2024-05-09T16:36:30.623Z,22.69
2024-05-09T16:37:51.762Z,23.06
2024-05-09T16:39:12.119Z,23.37
2024-05-09T16:40:37.545Z,23.76
2024-05-09T16:42:00.268Z,22.83
2024-05-09T16:43:20.321Z,23.50
2024-05-09T16:44:40.610Z,23.48
2024-05-09T16:46:02.827Z,22.56
2024-05-09T16:47:23.818Z,22.60
2024-05-09T16:48:45.741Z,22.91
2024-05-09T16:50:08.607Z,23.55
2024-05-09T16:51:28.776Z,23.41
2024-05-09T16:52:49.168Z,23.48
2024-05-09T16:54:09.474Z,23.61
2024-05-09T16:55:29.424Z,23.71
2024-05-09T16:56:50.016Z,23.48
2024-05-09T16:58:11.408Z,23.02
2024-05-09T16:59:31.106Z,23.13
2024-05-09T17:00:50.988Z,23.24
2024-05-09T17:02:11.299Z,22.97
2024-05-09T17:03:31.881Z,23.01
2024-05-09T17:04:53.080Z,24.14
2024-05-09T17:06:13.578Z,23.64
2024-05-09T17:07:33.910Z,23.99
2024-05-09T17:08:55.481Z,23.71
2024-05-09T17:10:22.180Z,23.90
2024-05-09T17:11:47.177Z,24.80
2024-05-09T17:13:09.112Z,25.15
2024-05-09T17:14:28.752Z,25.92
2024-05-09T17:15:49.362Z,26.13
2024-05-09T17:17:09.702Z,26.94
2024-05-09T17:18:30.625Z,28.12
2024-05-09T17:19:50.420Z,28.24
2024-05-09T17:21:11.452Z,29.09
2024-05-09T17:22:31.524Z,29.31
2024-05-09T17:23:54.601Z,29.34
2024-05-09T17:25:15.171Z,30.36
2024-05-09T17:26:35.681Z,30.86
2024-05-09T17:27:56.505Z,31.31
2024-05-09T17:29:16.448Z,31.64
2024-05-09T17:30:38.895Z,31.67
2024-05-09T17:32:01.080Z,32.18
2024-05-09T17:33:21.128Z,32.76
2024-05-09T17:34:40.790Z,33.33
2024-05-09T17:36:02.035Z,33.79
2024-05-09T17:37:22.941Z,33.71
2024-05-09T17:38:44.093Z,34.07
2024-05-09T17:40:14.179Z,34.31
2024-05-09T17:41:37.206Z,34.81